createdAt,value
2018-01-15T00:02:10.370Z,10.85
2018-01-15T00:04:37.899Z,11.93
2018-01-15T00:07:05.398Z,14.35
2018-01-15T00:09:32.906Z,18.52
2018-01-15T00:12:00.402Z,20.88
2018-01-15T00:14:27.927Z,21.08
2018-01-15T00:16:55.435Z,22.67
2018-01-15T00:19:22.921Z,21.75
2018-01-15T00:21:51.207Z,23.40
2018-01-15T00:24:18.698Z,21.58
2018-01-15T00:26:46.201Z,22.48
2018-01-15T00:29:14.462Z,16.70
2018-01-15T00:31:41.971Z,16.65
2018-01-15T00:34:09.479Z,15.13
2018-01-15T00:36:36.988Z,14.95
2018-01-15T00:39:04.505Z,15.00
2018-01-15T00:41:32.006Z,13.55
2018-01-15T00:43:59.517Z,15.63
2018-01-15T00:46:27.035Z,12.80
2018-01-15T00:48:54.526Z,12.52
2018-01-15T00:51:22.029Z,13.50
2018-01-15T00:53:49.512Z,14.70
2018-01-15T00:56:17.042Z,17.25
2018-01-15T00:58:44.529Z,15.93
2018-01-15T01:01:12.055Z,17.12
2018-01-15T01:03:39.545Z,15.50
2018-01-15T01:06:07.073Z,16.05
2018-01-15T01:08:34.561Z,17.15
2018-01-15T01:11:02.066Z,16.08
2018-01-15T01:13:30.335Z,15.40
2018-01-15T01:15:57.851Z,15.85
2018-01-15T01:18:25.340Z,16.10
2018-01-15T01:20:52.837Z,15.07
2018-01-15T01:23:20.412Z,17.45
2018-01-15T01:25:47.926Z,17.35
2018-01-15T01:28:15.442Z,16.75
2018-01-15T01:30:42.944Z,16.33
2018-01-15T01:33:10.436Z,15.32
2018-01-15T01:35:37.941Z,16.35
2018-01-15T01:38:05.481Z,16.98
2018-01-15T01:40:33.000Z,16.12
2018-01-15T01:43:00.514Z,16.17
2018-01-15T01:45:28.042Z,16.77
2018-01-15T01:47:55.555Z,14.77
2018-01-15T01:50:23.049Z,15.13
2018-01-15T01:52:50.567Z,14.87
2018-01-15T01:55:18.076Z,16.25
2018-01-15T01:57:45.599Z,15.10
2018-01-15T02:00:13.884Z,15.18
2018-01-15T02:02:41.405Z,16.35
2018-01-15T02:05:10.418Z,13.10
2018-01-15T02:07:38.708Z,16.30
2018-01-15T02:10:06.965Z,16.73
2018-01-15T02:12:34.498Z,15.05
2018-01-15T02:15:01.994Z,15.23
2018-01-15T02:17:30.270Z,14.95
2018-01-15T02:19:58.526Z,13.95
2018-01-15T02:22:26.048Z,13.95
2018-01-15T02:24:53.533Z,14.60
2018-01-15T02:27:21.055Z,15.65
2018-01-15T02:29:48.538Z,16.95
2018-01-15T02:32:16.049Z,17.62
2018-01-15T02:34:43.537Z,19.30
2018-01-15T02:37:11.036Z,20.50
2018-01-15T02:39:38.542Z,19.48
2018-01-15T02:42:06.049Z,19.90
2018-01-15T02:44:33.560Z,21.30
2018-01-15T02:47:01.049Z,20.50
2018-01-15T02:49:28.567Z,16.55
2018-01-15T02:51:56.063Z,14.38
2018-01-15T02:54:23.594Z,15.32
2018-01-15T02:56:51.103Z,14.93
2018-01-15T02:59:18.614Z,14.18
2018-01-15T03:01:46.137Z,15.15
2018-01-15T03:04:14.412Z,15.73
2018-01-15T03:06:42.688Z,14.85
2018-01-15T03:09:10.961Z,14.68
2018-01-15T03:11:39.232Z,15.40
2018-01-15T03:14:07.499Z,14.90
2018-01-15T03:16:35.005Z,15.75
2018-01-15T03:19:02.510Z,15.02
2018-01-15T03:21:30.098Z,16.35
2018-01-15T03:23:57.664Z,15.10
2018-01-15T03:26:25.154Z,16.33
2018-01-15T03:28:52.645Z,17.00
2018-01-15T03:31:20.162Z,16.58
2018-01-15T03:33:47.676Z,16.60
2018-01-15T03:36:18.875Z,15.50
2018-01-15T03:38:46.408Z,15.93
2018-01-15T03:41:13.916Z,15.75
2018-01-15T03:43:41.426Z,15.60
2018-01-15T03:46:08.927Z,15.18
2018-01-15T03:48:36.445Z,16.05
2018-01-15T03:51:03.928Z,15.73
2018-01-15T03:53:31.426Z,16.15
2018-01-15T03:55:59.719Z,15.48
2018-01-15T03:58:27.977Z,15.98
2018-01-15T04:00:56.242Z,16.60
2018-01-15T04:03:23.763Z,16.37
2018-01-15T04:05:51.253Z,14.65
2018-01-15T04:08:18.769Z,14.40
2018-01-15T04:10:46.252Z,15.43
2018-01-15T04:13:13.760Z,14.25
2018-01-15T04:15:41.286Z,13.48
2018-01-15T04:18:08.800Z,14.98
2018-01-15T04:20:36.288Z,14.10
2018-01-15T04:23:03.793Z,15.10
2018-01-15T04:25:31.308Z,14.68
2018-01-15T04:27:58.820Z,14.48
2018-01-15T04:30:26.317Z,16.60
2018-01-15T04:32:53.803Z,14.80
2018-01-15T04:35:22.099Z,17.55
2018-01-15T04:37:49.584Z,15.20
2018-01-15T04:40:17.073Z,16.92
2018-01-15T04:42:44.594Z,14.65
2018-01-15T04:45:12.085Z,14.82
2018-01-15T04:47:39.689Z,15.60
2018-01-15T04:50:07.178Z,16.45
2018-01-15T04:52:34.708Z,15.15
2018-01-15T04:55:02.289Z,15.93
2018-01-15T04:57:29.781Z,16.62
2018-01-15T04:59:57.294Z,16.65
2018-01-15T05:02:24.776Z,15.13
2018-01-15T05:04:52.299Z,15.52
2018-01-15T05:07:19.794Z,14.95
2018-01-15T05:09:47.300Z,16.85
2018-01-15T05:12:15.596Z,16.83
2018-01-15T05:14:43.099Z,16.02
2018-01-15T05:17:10.580Z,17.52
2018-01-15T05:19:38.094Z,17.37
2018-01-15T05:22:05.595Z,18.70
2018-01-15T05:24:33.081Z,16.02
2018-01-15T05:27:00.593Z,15.98
2018-01-15T05:29:28.091Z,15.65
2018-01-15T05:31:56.349Z,17.00
2018-01-15T05:34:24.625Z,16.83
2018-01-15T05:36:52.874Z,16.10
2018-01-15T05:39:20.366Z,15.85
2018-01-15T05:41:48.640Z,16.77
2018-01-15T05:44:16.889Z,17.98
2018-01-15T05:46:44.396Z,16.98
2018-01-15T05:49:11.927Z,16.87
2018-01-15T05:51:40.201Z,15.68
2018-01-15T05:54:08.489Z,16.42
2018-01-15T05:56:36.766Z,16.85
2018-01-15T05:59:05.041Z,18.25
2018-01-15T06:01:33.322Z,16.90
2018-01-15T06:04:01.596Z,16.60
2018-01-15T06:06:29.848Z,14.70
2018-01-15T06:08:57.441Z,14.00
2018-01-15T06:11:24.956Z,13.85
2018-01-15T06:13:52.464Z,18.70
2018-01-15T06:16:20.033Z,16.30
2018-01-15T06:18:47.538Z,17.65
2018-01-15T06:21:15.025Z,13.20
2018-01-15T06:23:43.317Z,18.08
2018-01-15T06:26:10.827Z,15.95
2018-01-15T06:28:38.341Z,16.15
2018-01-15T06:31:05.847Z,15.45
2018-01-15T06:33:33.345Z,14.77
2018-01-15T06:36:00.891Z,15.75
2018-01-15T06:38:29.163Z,16.83
2018-01-15T06:40:57.417Z,18.70
2018-01-15T06:43:24.938Z,18.58
2018-01-15T06:45:52.466Z,19.05
2018-01-15T06:48:20.017Z,20.05
2018-01-15T06:50:48.277Z,16.05
2018-01-15T06:53:16.551Z,16.70
2018-01-15T06:55:44.072Z,15.85
2018-01-15T06:58:11.580Z,15.85
2018-01-15T07:00:39.838Z,17.12
2018-01-15T07:03:07.370Z,14.68
2018-01-15T07:05:34.870Z,17.00
2018-01-15T07:08:03.131Z,17.23
2018-01-15T07:10:30.679Z,16.98
2018-01-15T07:12:58.178Z,20.10
2018-01-15T07:15:25.668Z,16.52
2018-01-15T07:17:53.200Z,16.67
2018-01-15T07:20:20.708Z,15.20
2018-01-15T07:22:48.317Z,15.18
2018-01-15T07:25:15.805Z,14.70
2018-01-15T07:27:43.289Z,14.43
2018-01-15T07:30:10.821Z,16.60
2018-01-15T07:32:38.351Z,16.08
2018-01-15T07:35:05.858Z,16.42
2018-01-15T07:37:33.363Z,16.10
2018-01-15T07:40:00.863Z,15.68
2018-01-15T07:42:28.378Z,17.37
2018-01-15T07:44:55.887Z,16.52
2018-01-15T07:47:23.412Z,14.50
2018-01-15T07:49:50.915Z,16.50
2018-01-15T07:52:18.415Z,14.80
2018-01-15T07:54:45.921Z,16.77
2018-01-15T07:57:13.486Z,15.35
2018-01-15T07:59:40.999Z,14.75
2018-01-15T08:02:08.490Z,15.40
2018-01-15T08:04:35.994Z,16.50
2018-01-15T08:07:04.283Z,14.30
2018-01-15T08:09:31.782Z,17.33
2018-01-15T08:11:59.297Z,14.65
2018-01-15T08:14:26.799Z,16.17
2018-01-15T08:16:54.324Z,15.27
2018-01-15T08:19:21.836Z,15.95
2018-01-15T08:21:49.320Z,14.85
2018-01-15T08:24:16.822Z,14.00
2018-01-15T08:26:44.342Z,14.68
2018-01-15T08:29:11.855Z,14.27
2018-01-15T08:31:39.386Z,15.52
2018-01-15T08:34:06.911Z,14.57
2018-01-15T08:36:35.203Z,13.55
2018-01-15T08:39:02.695Z,14.55
2018-01-15T08:41:30.319Z,14.32
2018-01-15T08:43:57.831Z,15.60
2018-01-15T08:46:25.342Z,13.55
2018-01-15T08:48:52.848Z,14.38
2018-01-15T08:51:20.381Z,14.38
2018-01-15T08:53:47.907Z,13.70
2018-01-15T08:56:15.404Z,14.10
2018-01-15T08:58:42.926Z,14.68
2018-01-15T09:01:10.457Z,14.23
2018-01-15T09:03:37.929Z,14.25
2018-01-15T09:06:06.218Z,15.00
2018-01-15T09:08:33.774Z,14.50
2018-01-15T09:11:01.268Z,14.25
2018-01-15T09:13:28.801Z,14.75
2018-01-15T09:15:56.310Z,13.95
2018-01-15T09:18:23.845Z,14.65
2018-01-15T09:20:51.353Z,11.68
2018-01-15T09:23:18.845Z,13.77
2018-01-15T09:25:46.364Z,12.52
2018-01-15T09:28:14.635Z,14.07
2018-01-15T09:30:42.885Z,12.63
2018-01-15T09:33:10.416Z,13.75
2018-01-15T09:35:37.919Z,14.43
2018-01-15T09:38:05.411Z,13.80
2018-01-15T09:40:32.939Z,12.20
2018-01-15T09:43:01.198Z,13.20
2018-01-15T09:45:28.689Z,13.65
2018-01-15T09:47:56.201Z,13.07
2018-01-15T09:50:23.697Z,13.77
2018-01-15T09:52:51.971Z,12.65
2018-01-15T09:55:20.245Z,14.20
2018-01-15T09:57:48.517Z,12.50
2018-01-15T10:00:16.820Z,13.52
2018-01-15T10:02:44.309Z,12.55
2018-01-15T10:05:11.793Z,15.32
2018-01-15T10:07:40.797Z,14.52
2018-01-15T10:10:09.063Z,13.98
2018-01-15T10:12:36.578Z,14.18
2018-01-15T10:15:04.065Z,15.73
2018-01-15T10:17:31.579Z,13.05
2018-01-15T10:19:59.070Z,15.43
2018-01-15T10:22:26.589Z,14.20
2018-01-15T10:24:54.093Z,12.80
2018-01-15T10:27:21.603Z,12.23
2018-01-15T10:29:49.110Z,14.18
2018-01-15T10:32:16.631Z,14.40
2018-01-15T10:34:44.163Z,13.52
2018-01-15T10:37:12.436Z,13.68
2018-01-15T10:39:40.693Z,13.07
2018-01-15T10:42:08.295Z,14.35
2018-01-15T10:44:35.867Z,13.50
2018-01-15T10:47:03.404Z,16.23
2018-01-15T10:49:30.927Z,12.68
2018-01-15T10:51:58.437Z,14.27
2018-01-15T10:54:25.925Z,16.37
2018-01-15T10:56:53.454Z,15.20
2018-01-15T10:59:20.950Z,14.30
2018-01-15T11:01:48.447Z,13.50
2018-01-15T11:04:16.013Z,14.90
2018-01-15T11:06:43.519Z,15.00
2018-01-15T11:09:11.009Z,13.35
2018-01-15T11:11:39.301Z,13.95
2018-01-15T11:14:06.802Z,14.52
2018-01-15T11:16:34.284Z,13.18
2018-01-15T11:19:01.808Z,14.48
2018-01-15T11:21:29.297Z,14.65
2018-01-15T11:23:56.809Z,13.48
2018-01-15T11:26:24.324Z,12.70
2018-01-15T11:28:51.859Z,14.55
2018-01-15T11:31:19.353Z,12.43
2018-01-15T11:33:47.628Z,11.88
2018-01-15T11:36:15.914Z,12.02
2018-01-15T11:38:44.169Z,12.80
2018-01-15T11:41:11.663Z,12.18
2018-01-15T11:43:39.180Z,14.70
2018-01-15T11:46:06.664Z,13.07
2018-01-15T11:48:34.931Z,14.00
2018-01-15T11:51:03.220Z,12.75
2018-01-15T11:53:30.705Z,12.73
2018-01-15T11:55:58.221Z,12.85
2018-01-15T11:58:26.482Z,13.75
2018-01-15T12:00:53.991Z,12.90
2018-01-15T12:03:21.511Z,14.40
2018-01-15T12:05:49.795Z,14.30
2018-01-15T12:08:18.063Z,15.15
2018-01-15T12:10:46.349Z,14.30
2018-01-15T12:13:14.624Z,12.80
2018-01-15T12:15:42.915Z,13.30
2018-01-15T12:18:10.452Z,13.70
2018-01-15T12:20:38.732Z,12.90
2018-01-15T12:23:07.008Z,12.88
2018-01-15T12:25:35.299Z,12.50
2018-01-15T12:28:02.812Z,12.68
2018-01-15T12:30:30.334Z,11.65
2018-01-15T12:32:57.851Z,12.57
2018-01-15T12:35:26.134Z,12.60
2018-01-15T12:37:54.434Z,13.00
2018-01-15T12:40:21.925Z,13.05
2018-01-15T12:42:49.566Z,13.00
2018-01-15T12:45:17.086Z,12.73
2018-01-15T12:47:45.363Z,12.45
2018-01-15T12:50:13.635Z,12.00
2018-01-15T12:52:41.909Z,14.43
2018-01-15T12:55:10.183Z,13.23
2018-01-15T12:57:38.487Z,12.05
2018-01-15T13:00:05.995Z,13.90
2018-01-15T13:02:33.488Z,13.35
2018-01-15T13:05:01.778Z,15.82
2018-01-15T13:07:41.268Z,14.93
2018-01-15T13:10:08.776Z,14.77
2018-01-15T13:12:36.288Z,13.83
2018-01-15T13:15:03.799Z,12.07
2018-01-15T13:17:31.309Z,13.27
2018-01-15T13:19:58.802Z,12.80
2018-01-15T13:22:26.305Z,13.27
2018-01-15T13:24:53.940Z,12.10
2018-01-15T13:27:21.452Z,13.80
2018-01-15T13:29:48.950Z,12.32
2018-01-15T13:32:16.460Z,11.95
2018-01-15T13:34:43.970Z,13.15
2018-01-15T13:37:11.485Z,13.82
2018-01-15T13:39:39.020Z,12.88
2018-01-15T13:42:06.508Z,14.57
2018-01-15T13:44:34.007Z,13.18
2018-01-15T13:47:01.526Z,11.30
2018-01-15T13:49:29.823Z,14.27
2018-01-15T13:51:57.309Z,12.40
2018-01-15T13:54:24.847Z,14.27
2018-01-15T13:56:52.346Z,13.75
2018-01-15T13:59:19.858Z,12.10
2018-01-15T14:01:47.411Z,13.05
2018-01-15T14:04:15.664Z,12.90
2018-01-15T14:06:43.149Z,12.77
2018-01-15T14:09:10.666Z,12.35
2018-01-15T14:11:38.161Z,12.50
2018-01-15T14:14:05.841Z,11.57
2018-01-15T14:16:33.412Z,13.82
2018-01-15T14:19:00.943Z,12.50
2018-01-15T14:21:28.486Z,12.90
2018-01-15T14:23:56.783Z,13.32
2018-01-15T14:26:24.295Z,13.60
2018-01-15T14:28:51.803Z,15.45
2018-01-15T14:31:19.337Z,12.00
2018-01-15T14:33:47.629Z,13.88
2018-01-15T14:36:15.130Z,13.55
2018-01-15T14:38:42.642Z,13.68
2018-01-15T14:41:10.915Z,13.57
2018-01-15T14:43:39.173Z,16.30
2018-01-15T14:46:06.690Z,13.55
2018-01-15T14:48:34.181Z,14.07
2018-01-15T14:51:01.711Z,15.18
2018-01-15T14:53:29.201Z,13.50
2018-01-15T14:55:57.462Z,14.98
2018-01-15T14:58:24.988Z,14.65
2018-01-15T15:00:52.503Z,14.65
2018-01-15T15:03:20.771Z,17.30
2018-01-15T15:05:49.811Z,14.77
2018-01-15T15:08:17.301Z,15.20
2018-01-15T15:10:44.825Z,15.60
2018-01-15T15:13:12.329Z,17.37
2018-01-15T15:15:39.839Z,17.52
2018-01-15T15:18:07.337Z,15.35
2018-01-15T15:20:34.851Z,17.10
2018-01-15T15:23:02.350Z,18.33
2018-01-15T15:25:29.865Z,17.60
2018-01-15T15:27:57.357Z,16.17
2018-01-15T15:30:24.878Z,16.23
2018-01-15T15:32:52.386Z,16.40
2018-01-15T15:35:19.877Z,16.17
2018-01-15T15:37:48.168Z,15.23
2018-01-15T15:40:15.676Z,15.60
2018-01-15T15:42:43.191Z,16.80
2018-01-15T15:45:10.680Z,15.80
2018-01-15T15:47:38.188Z,15.55
2018-01-15T15:50:05.757Z,15.25
2018-01-15T15:52:33.273Z,16.37
2018-01-15T15:55:00.775Z,15.02
2018-01-15T15:57:28.285Z,15.07
2018-01-15T15:59:55.789Z,14.05
2018-01-15T16:02:24.055Z,15.25
2018-01-15T16:04:52.352Z,15.45
2018-01-15T16:07:19.859Z,13.77
2018-01-15T16:09:47.484Z,11.32
2018-01-15T16:12:15.137Z,12.45
2018-01-15T16:14:42.630Z,12.40
2018-01-15T16:17:10.131Z,13.20
2018-01-15T16:19:38.401Z,11.63
2018-01-15T16:22:17.879Z,10.27
2018-01-15T16:24:45.390Z,11.68
2018-01-15T16:27:12.920Z,11.07
2018-01-15T16:29:40.419Z,9.57
2018-01-15T16:32:08.723Z,7.97
2018-01-15T16:34:36.209Z,8.45
2018-01-15T16:37:03.708Z,7.55
2018-01-15T16:39:32.004Z,7.72
2018-01-15T16:41:59.503Z,7.95
2018-01-15T16:44:27.003Z,6.22
2018-01-15T16:46:55.297Z,6.62
2018-01-15T16:49:22.778Z,6.40
2018-01-15T16:51:50.270Z,6.45
2018-01-15T16:54:17.781Z,5.60
2018-01-15T16:56:45.284Z,5.65
2018-01-15T16:59:12.778Z,5.50
2018-01-15T17:01:41.058Z,5.40
2018-01-15T17:04:09.347Z,5.40
2018-01-15T17:06:36.841Z,6.30
2018-01-15T17:09:04.351Z,5.53
2018-01-15T17:11:32.606Z,4.97
2018-01-15T17:14:00.132Z,4.68
2018-01-15T17:16:27.630Z,5.70
2018-01-15T17:18:55.886Z,5.18
2018-01-15T17:21:23.410Z,5.50
2018-01-15T17:23:50.911Z,5.00
2018-01-15T17:26:18.412Z,4.70
2018-01-15T17:28:45.936Z,4.87
2018-01-15T17:31:13.418Z,5.45
2018-01-15T17:33:40.915Z,5.00
2018-01-15T17:36:08.429Z,5.55
2018-01-15T17:38:36.690Z,5.22
2018-01-15T17:41:04.948Z,5.35
2018-01-15T17:43:32.438Z,5.47
2018-01-15T17:46:00.716Z,5.30
2018-01-15T17:48:28.224Z,4.90
2018-01-15T17:50:55.747Z,5.30
2018-01-15T17:53:23.241Z,5.62
2018-01-15T17:55:50.764Z,6.37
2018-01-15T17:58:18.282Z,5.20
2018-01-15T18:00:45.783Z,5.95
2018-01-15T18:03:13.277Z,6.00
2018-01-15T18:05:40.786Z,5.28
2018-01-15T18:08:08.298Z,5.78
2018-01-15T18:10:35.784Z,7.03
2018-01-15T18:13:04.066Z,6.28
2018-01-15T18:15:32.340Z,6.10
2018-01-15T18:18:00.613Z,5.35
2018-01-15T18:20:29.097Z,7.00
2018-01-15T18:22:57.359Z,5.12
2018-01-15T18:25:25.635Z,6.00
2018-01-15T18:27:53.892Z,6.28
2018-01-15T18:30:21.388Z,5.55
2018-01-15T18:32:49.641Z,5.40
2018-01-15T18:35:17.940Z,5.25
2018-01-15T18:37:46.198Z,4.90
2018-01-15T18:40:14.457Z,4.82
2018-01-15T18:42:41.970Z,4.70
2018-01-15T18:45:09.456Z,4.07
2018-01-15T18:47:36.960Z,4.93
2018-01-15T18:50:05.252Z,3.53
2018-01-15T18:52:32.751Z,4.00
2018-01-15T18:55:00.279Z,3.75
2018-01-15T18:57:27.808Z,3.17
2018-01-15T18:59:56.070Z,3.60
2018-01-15T19:02:23.614Z,3.65
2018-01-15T19:04:51.102Z,2.85
2018-01-15T19:07:19.383Z,3.53
2018-01-15T19:09:47.661Z,4.07
2018-01-15T19:12:15.226Z,3.25
2018-01-15T19:14:42.714Z,2.95
2018-01-15T19:17:10.236Z,3.37
2018-01-15T19:19:38.489Z,3.40
2018-01-15T19:22:06.012Z,3.28
2018-01-15T19:24:33.494Z,3.90
2018-01-15T19:27:00.991Z,3.90
2018-01-15T19:29:29.257Z,3.50
2018-01-15T19:31:57.514Z,3.45
2018-01-15T19:37:36.569Z,3.15
2018-01-15T19:40:04.879Z,3.78
2018-01-15T19:42:32.375Z,2.30
2018-01-15T19:45:05.635Z,3.03
2018-01-15T19:47:38.897Z,2.60
2018-01-15T19:50:12.081Z,3.33
2018-01-15T19:52:45.397Z,2.95
2018-01-15T19:55:19.283Z,2.08
2018-01-15T19:57:52.457Z,2.37
2018-01-15T20:00:25.591Z,2.83
2018-01-15T20:02:59.674Z,2.40
2018-01-15T20:05:32.962Z,2.42
2018-01-15T20:08:06.097Z,2.30
2018-01-15T20:10:39.387Z,2.45
2018-01-15T20:13:06.874Z,2.30
2018-01-15T20:15:34.371Z,2.15
2018-01-15T20:18:01.961Z,2.58
2018-01-15T20:20:30.206Z,1.87
2018-01-15T20:22:57.689Z,2.28
2018-01-15T20:25:25.969Z,2.30
2018-01-15T20:27:54.222Z,2.20
2018-01-15T20:30:21.714Z,2.00
2018-01-15T20:32:49.216Z,2.87
2018-01-15T20:35:16.696Z,2.20
2018-01-15T20:37:44.181Z,2.20
2018-01-15T20:40:11.693Z,2.37
2018-01-15T20:42:39.201Z,2.25
2018-01-15T20:45:07.284Z,1.92
2018-01-15T20:47:34.811Z,1.70
2018-01-15T20:50:03.074Z,2.10
2018-01-15T20:52:30.571Z,1.48
2018-01-15T20:54:58.095Z,2.05
2018-01-15T20:57:26.413Z,2.22
2018-01-15T20:59:53.892Z,1.80
2018-01-15T21:02:21.420Z,1.65
2018-01-15T21:04:48.918Z,1.48
2018-01-15T21:07:16.419Z,1.42
2018-01-15T21:09:44.707Z,2.83
2018-01-15T21:12:12.216Z,1.77
2018-01-15T21:14:39.701Z,1.50
2018-01-15T21:17:07.206Z,1.60
2018-01-15T21:19:34.698Z,1.37
2018-01-15T21:22:02.202Z,1.40
2018-01-15T21:24:29.725Z,1.20
2018-01-15T21:26:57.222Z,1.45
2018-01-15T21:29:24.705Z,1.17
2018-01-15T21:31:52.214Z,1.10
2018-01-15T21:34:20.470Z,1.10
2018-01-15T21:36:47.967Z,1.30
2018-01-15T21:39:15.500Z,1.15
2018-01-15T21:41:42.995Z,1.10
2018-01-15T21:44:10.477Z,1.00
2018-01-15T21:46:37.990Z,0.90
2018-01-15T21:49:06.256Z,1.10
2018-01-15T21:51:34.504Z,1.37
2018-01-15T21:54:02.023Z,1.00
2018-01-15T21:56:29.565Z,1.00
2018-01-15T21:58:57.838Z,1.02
2018-01-15T22:01:26.131Z,0.98
2018-01-15T22:03:53.700Z,0.90
2018-01-15T22:06:21.231Z,1.10
2018-01-15T22:08:48.718Z,0.90
2018-01-15T22:11:16.258Z,0.90
2018-01-15T22:13:43.754Z,1.02
2018-01-15T22:16:11.280Z,1.08
2018-01-15T22:18:38.782Z,0.90
2018-01-15T22:21:06.283Z,0.95
2018-01-15T22:23:33.815Z,1.15
2018-01-15T22:26:01.298Z,0.90
2018-01-15T22:28:29.549Z,0.93
2018-01-15T22:30:57.822Z,0.90
2018-01-15T22:33:25.317Z,0.90
2018-01-15T22:35:52.805Z,0.90
2018-01-15T22:38:20.327Z,0.90
2018-01-15T22:40:47.828Z,0.88
2018-01-15T22:43:15.327Z,0.93
2018-01-15T22:45:43.592Z,0.80
2018-01-15T22:48:11.083Z,0.70
2018-01-15T22:50:38.561Z,0.85
2018-01-15T22:53:06.092Z,0.77
2018-01-15T22:55:33.603Z,0.80
2018-01-15T22:58:01.096Z,0.88
2018-01-15T23:00:29.386Z,0.88
2018-01-15T23:02:57.741Z,0.75
2018-01-15T23:05:25.994Z,0.90
2018-01-15T23:07:53.593Z,1.00
2018-01-15T23:10:21.855Z,0.80
2018-01-15T23:12:50.115Z,0.70
2018-01-15T23:15:17.634Z,0.70
2018-01-15T23:17:45.137Z,0.90
2018-01-15T23:20:12.652Z,0.70
2018-01-15T23:22:40.175Z,0.77
2018-01-15T23:25:08.426Z,0.85
2018-01-15T23:27:35.940Z,0.80
2018-01-15T23:30:03.476Z,1.08
2018-01-15T23:32:30.969Z,1.00
2018-01-15T23:34:58.474Z,0.88
2018-01-15T23:37:26.745Z,0.90
2018-01-15T23:39:55.011Z,0.90
2018-01-15T23:42:22.506Z,1.00
2018-01-15T23:44:50.033Z,1.00
2018-01-15T23:47:17.535Z,1.33
2018-01-15T23:49:45.017Z,1.20
2018-01-15T23:52:12.536Z,1.00
2018-01-15T23:54:40.040Z,1.20
2018-01-15T23:57:07.527Z,0.90
2018-01-15T23:59:35.834Z,0.93
